createdAt,value
2019-05-30T20:44:13.883Z,110.00
2019-05-30T20:45:14.393Z,110.33
2019-05-30T20:46:23.161Z,111.17
2019-05-30T20:47:15.416Z,112.33
2019-05-30T20:48:15.925Z,109.33
2019-05-30T20:49:16.436Z,107.83
2019-05-30T20:50:16.983Z,106.00
2019-05-30T20:51:21.117Z,104.17
2019-05-30T20:52:17.970Z,103.33
2019-05-30T20:53:20.396Z,101.50
2019-05-30T20:54:18.990Z,93.67
2019-05-30T20:55:19.735Z,95.17
2019-05-30T20:56:20.042Z,91.17
2019-05-30T20:57:20.520Z,89.83
2019-05-30T20:58:21.031Z,97.00
2019-05-30T20:59:21.589Z,97.50
2019-05-30T21:00:22.052Z,99.00
2019-05-30T21:01:22.580Z,100.17
2019-05-30T21:02:23.094Z,96.50
2019-05-30T21:03:23.581Z,94.67
2019-05-30T21:04:24.094Z,100.67
2019-05-30T21:05:24.603Z,103.00
2019-05-30T21:06:25.133Z,103.17
2019-05-30T21:07:25.621Z,105.33
2019-05-30T21:08:26.132Z,101.33
2019-05-30T21:09:29.135Z,104.67
2019-05-30T21:10:27.152Z,108.50
2019-05-30T21:11:27.688Z,105.17
2019-05-30T21:12:37.960Z,106.17
2019-05-30T21:13:28.682Z,109.17
2019-05-30T21:14:29.193Z,106.50
2019-05-30T21:15:29.702Z,106.67
2019-05-30T21:16:30.240Z,104.67
2019-05-30T21:17:30.720Z,101.83
2019-05-30T21:18:31.229Z,102.83
2019-05-30T21:19:31.739Z,103.50
2019-05-30T21:20:32.250Z,100.33
2019-05-30T21:21:32.838Z,99.17
2019-05-30T21:22:33.271Z,99.33
2019-05-30T21:23:33.778Z,100.33
2019-05-30T21:24:34.287Z,101.67
2019-05-30T21:25:35.860Z,100.17
2019-05-30T21:26:36.566Z,105.00
2019-05-30T21:27:36.944Z,104.00
2019-05-30T21:28:36.619Z,99.33
2019-05-30T21:29:36.839Z,98.67
2019-05-30T21:30:37.345Z,99.50
2019-05-30T21:31:39.142Z,102.00
2019-05-30T21:32:39.691Z,104.33
2019-05-30T21:33:39.822Z,103.00
2019-05-30T21:34:40.198Z,103.50
2019-05-30T21:35:39.891Z,104.17
2019-05-30T21:36:41.757Z,103.33
2019-05-30T21:37:41.773Z,107.50
2019-05-30T21:38:41.928Z,107.67
2019-05-30T21:39:42.084Z,102.17
2019-05-30T21:40:42.498Z,99.83
2019-05-30T21:41:44.351Z,99.83
2019-05-30T21:42:57.836Z,98.33
2019-05-30T21:43:44.555Z,95.33
2019-05-30T21:44:46.967Z,100.00
2019-05-30T21:45:44.990Z,97.33
2019-05-30T21:46:46.691Z,97.83
2019-05-30T21:47:46.843Z,92.33
2019-05-30T21:48:46.992Z,94.00
2019-05-30T21:49:47.113Z,100.00
2019-05-30T21:50:48.605Z,102.00
2019-05-30T21:51:48.075Z,102.83
2019-05-30T21:52:49.701Z,102.17
2019-05-30T21:53:49.703Z,105.00
2019-05-30T21:54:50.148Z,98.00
2019-05-30T21:55:50.233Z,97.50
2019-05-30T21:56:50.608Z,96.50
2019-05-30T21:57:51.105Z,103.50
2019-05-30T21:58:51.607Z,103.67
2019-05-30T21:59:52.117Z,99.83
2019-05-30T22:00:52.632Z,102.33
2019-05-30T22:01:57.090Z,108.00
2019-05-30T22:02:53.644Z,104.33
2019-05-30T22:03:54.153Z,103.33
2019-05-30T22:04:54.662Z,107.67
2019-05-30T22:05:55.173Z,110.83
2019-05-30T22:06:55.705Z,112.50
2019-05-30T22:07:56.191Z,108.83
2019-05-30T22:08:56.699Z,107.67
2019-05-30T22:09:57.209Z,105.67
2019-05-30T22:10:57.719Z,106.83
2019-05-30T22:11:58.247Z,98.67
2019-05-30T22:13:09.172Z,101.33
2019-05-30T22:13:59.246Z,99.50
2019-05-30T22:14:59.754Z,100.50
2019-05-30T22:16:00.262Z,93.00
2019-05-30T22:17:00.791Z,93.83
2019-05-30T22:18:01.283Z,91.50
2019-05-30T22:19:01.792Z,92.50
2019-05-30T22:20:02.301Z,95.17
2019-05-30T22:21:02.810Z,90.67
2019-05-30T22:22:03.343Z,92.17
2019-05-30T22:23:03.829Z,91.17
2019-05-30T22:24:04.337Z,92.50
2019-05-30T22:25:04.847Z,87.83
2019-05-30T22:26:05.355Z,95.17
2019-05-30T22:27:05.888Z,93.00
2019-05-30T22:28:06.375Z,98.17
2019-05-30T22:29:06.884Z,98.83
2019-05-30T22:30:07.393Z,97.33
2019-05-30T22:31:07.901Z,95.17
2019-05-30T22:32:08.428Z,95.33
2019-05-30T22:33:08.920Z,95.67
2019-05-30T22:34:09.428Z,97.17
2019-05-30T22:35:09.938Z,95.67
2019-05-30T22:36:10.446Z,94.33
2019-05-30T22:37:10.974Z,95.17
2019-05-30T22:38:11.465Z,92.83
2019-05-30T22:39:11.974Z,98.33
2019-05-30T22:40:12.480Z,102.50
2019-05-30T22:41:12.991Z,106.17
2019-05-30T22:42:13.524Z,108.50
2019-05-30T22:43:24.901Z,109.67
2019-05-30T22:44:14.517Z,107.17
2019-05-30T22:45:15.029Z,107.00
2019-05-30T22:46:15.536Z,106.00
2019-05-30T22:47:16.062Z,103.83
2019-05-30T22:48:16.555Z,100.83
2019-05-30T22:49:17.064Z,97.00
2019-05-30T22:50:17.576Z,95.50
2019-05-30T22:51:18.083Z,97.17
2019-05-30T22:52:18.607Z,97.33
2019-05-30T22:53:19.104Z,96.33
2019-05-30T22:54:19.607Z,100.00
2019-05-30T22:55:20.117Z,103.00
2019-05-30T22:56:20.624Z,104.00
2019-05-30T22:57:21.153Z,105.50
2019-05-30T22:58:21.644Z,113.50
2019-05-30T22:59:22.153Z,114.33
2019-05-30T23:00:22.662Z,115.50
2019-05-30T23:01:23.170Z,114.50
2019-05-30T23:02:23.697Z,112.17
2019-05-30T23:03:24.188Z,113.00
2019-05-30T23:04:24.695Z,107.50
2019-05-30T23:05:25.209Z,106.83
2019-05-30T23:06:25.715Z,104.67
2019-05-30T23:07:26.241Z,106.17
2019-05-30T23:08:26.760Z,99.00
2019-05-30T23:09:27.242Z,98.83
2019-05-30T23:10:27.751Z,95.33
2019-05-30T23:11:28.261Z,93.00
2019-05-30T23:12:28.786Z,94.17
2019-05-30T23:13:39.975Z,95.67
2019-05-30T23:14:29.789Z,97.17
2019-05-30T23:15:30.295Z,97.00
2019-05-30T23:16:30.803Z,100.00
2019-05-30T23:17:31.337Z,99.00
2019-05-30T23:18:31.821Z,101.17
2019-05-30T23:19:32.330Z,96.00
2019-05-30T23:20:32.840Z,96.33
2019-05-30T23:21:33.349Z,98.50
2019-05-30T23:22:33.876Z,101.50
2019-05-30T23:23:34.373Z,99.17
2019-05-30T23:24:34.875Z,100.33
2019-05-30T23:25:35.383Z,105.33
2019-05-30T23:26:35.896Z,102.17
2019-05-30T23:27:36.422Z,100.83
2019-05-30T23:28:36.909Z,101.17
2019-05-30T23:29:37.419Z,103.83
2019-05-30T23:30:37.927Z,103.83
2019-05-30T23:31:38.437Z,100.50
2019-05-30T23:32:38.965Z,96.83
2019-05-30T23:33:39.453Z,104.17
2019-05-30T23:34:39.964Z,104.83
2019-05-30T23:35:40.474Z,103.50
2019-05-30T23:36:40.980Z,104.00
2019-05-30T23:37:41.513Z,102.00
2019-05-30T23:38:41.999Z,102.33
2019-05-30T23:39:42.509Z,102.83
2019-05-30T23:40:43.018Z,102.17
2019-05-30T23:41:43.525Z,108.33
2019-05-30T23:42:44.052Z,111.17
2019-05-30T23:43:56.779Z,104.17
2019-05-30T23:44:45.049Z,104.17
2019-05-30T23:45:45.559Z,99.00
2019-05-30T23:46:46.068Z,101.00
2019-05-30T23:47:46.597Z,104.17
2019-05-30T23:48:47.087Z,103.33
2019-05-30T23:49:47.595Z,103.00
2019-05-30T23:50:48.107Z,106.83
2019-05-30T23:51:49.874Z,101.67
2019-05-30T23:52:50.032Z,98.83
2019-05-30T23:53:50.049Z,101.33
2019-05-30T23:54:50.141Z,97.83
2019-05-30T23:55:50.650Z,100.00
2019-05-30T23:56:52.277Z,100.50
2019-05-30T23:57:52.433Z,99.17
2019-05-30T23:58:52.532Z,102.67
2019-05-30T23:59:52.796Z,102.83
